Time;durP1;ratioP1;P1;durP2;ratioP2;P2;SDS_P1;SDS_P2;PMS_P1;PMS_P2;Temp;Humidity;BMP_temperature;BMP_pressure;BME280_temperature;BME280_humidity;BME280_pressure;Samples;Min_cycle;Max_cycle;Signal;HPM_P1;HPM_P2
2023/03/02 00:01:53;;;;;;;35.85;20.92;;;3.10;84.60;;;;;;5061611;28;20221;-69
2023/03/02 00:04:25;;;;;;;37.45;22.05;;;3.10;84.70;;;;;;5073290;28;20639;-70
2023/03/02 00:06:56;;;;;;;37.95;22.25;;;3.10;84.50;;;;;;5063461;28;20221;-69
2023/03/02 00:09:26;;;;;;;37.13;22.63;;;3.10;84.20;;;;;;5052854;28;20229;-69
2023/03/02 00:11:55;;;;;;;40.85;23.77;;;3.10;84.30;;;;;;5070568;28;20284;-69
2023/03/02 00:14:23;;;;;;;36.92;21.77;;;3.10;84.20;;;;;;5072930;28;20201;-69
2023/03/02 00:16:55;;;;;;;36.13;23.10;;;3.10;84.20;;;;;;5055671;28;20671;-69
2023/03/02 00:19:25;;;;;;;37.65;22.30;;;3.10;84.30;;;;;;5052687;28;20194;-69
2023/03/02 00:21:53;;;;;;;32.97;20.92;;;3.10;84.30;;;;;;5053803;28;20285;-69
2023/03/02 00:24:21;;;;;;;35.50;20.83;;;3.10;84.50;;;;;;5032807;28;20550;-69
2023/03/02 00:26:50;;;;;;;35.85;21.27;;;3.10;84.60;;;;;;5063642;28;20221;-69
2023/03/02 00:29:19;;;;;;;33.17;20.95;;;3.00;84.60;;;;;;5072548;28;20212;-69
2023/03/02 00:31:49;;;;;;;35.08;21.30;;;3.00;84.90;;;;;;5057831;28;20650;-69
2023/03/02 00:34:22;;;;;;;36.35;22.63;;;3.00;85.30;;;;;;5056379;28;20658;-68
2023/03/02 00:36:49;;;;;;;34.47;21.05;;;3.10;85.50;;;;;;5071972;28;20193;-70
2023/03/02 00:39:18;;;;;;;35.85;23.17;;;3.00;85.20;;;;;;5068888;28;20186;-68
2023/03/02 00:41:48;;;;;;;37.15;22.98;;;3.00;85.30;;;;;;5052130;28;20277;-69
2023/03/02 00:44:17;;;;;;;33.50;20.85;;;3.00;85.60;;;;;;5054698;28;20554;-68
2023/03/02 00:46:47;;;;;;;40.30;26.33;;;3.00;85.70;;;;;;5065346;28;20206;-68
2023/03/02 00:49:16;;;;;;;38.42;23.50;;;3.00;86.00;;;;;;5053860;28;20281;-68
2023/03/02 00:51:43;;;;;;;42.22;23.52;;;3.00;86.00;;;;;;5072408;28;20205;-69
2023/03/02 00:54:11;;;;;;;35.50;23.95;;;3.00;86.00;;;;;;5070768;28;20190;-69
2023/03/02 00:56:40;;;;;;;35.10;22.33;;;3.10;86.00;;;;;;5052261;28;20202;-69
2023/03/02 00:59:28;;;;;;;37.60;24.48;;;3.10;85.30;;;;;;5059593;28;20182;-69
2023/03/02 01:01:59;;;;;;;34.05;21.02;;;3.00;85.50;;;;;;5072188;28;20321;-69
2023/03/02 01:04:29;;;;;;;43.08;24.42;;;3.00;85.40;;;;;;5061302;28;20672;-69
2023/03/02 01:06:57;;;;;;;33.42;21.42;;;3.00;85.60;;;;;;5065938;28;20221;-69
2023/03/02 01:09:25;;;;;;;35.97;22.88;;;3.00;86.00;;;;;;5062307;28;20606;-68
2023/03/02 01:11:52;;;;;;;38.17;23.25;;;3.00;86.20;;;;;;5066379;28;20551;-69
2023/03/02 01:14:20;;;;;;;37.45;22.77;;;3.10;86.00;;;;;;5063451;28;20519;-68
2023/03/02 01:16:47;;;;;;;40.85;24.17;;;3.00;85.90;;;;;;5052008;28;20195;-69
2023/03/02 01:19:17;;;;;;;41.95;23.50;;;3.00;86.00;;;;;;5056691;28;20208;-68
2023/03/02 01:21:45;;;;;;;39.58;22.77;;;3.00;86.00;;;;;;5052151;28;20687;-68
2023/03/02 01:24:13;;;;;;;40.78;26.83;;;3.10;86.20;;;;;;5067428;28;20726;-68
2023/03/02 01:26:41;;;;;;;37.40;24.10;;;3.10;86.20;;;;;;5071938;28;20300;-68
2023/03/02 01:29:10;;;;;;;37.42;22.75;;;3.10;86.20;;;;;;5056859;28;20194;-68
2023/03/02 01:31:41;;;;;;;41.35;25.60;;;3.10;86.40;;;;;;5051998;28;20210;-68
2023/03/02 01:34:11;;;;;;;34.85;22.65;;;3.00;86.60;;;;;;5065763;28;20204;-68
2023/03/02 01:36:43;;;;;;;38.17;24.42;;;3.10;86.60;;;;;;5070785;28;20205;-68
2023/03/02 01:39:14;;;;;;;40.67;23.75;;;3.10;86.60;;;;;;5069994;28;20190;-68
2023/03/02 01:41:42;;;;;;;47.55;25.10;;;3.10;86.90;;;;;;5071758;28;20201;-73
2023/03/02 01:44:38;;;;;;;37.95;23.42;;;3.10;87.10;;;;;;5057908;28;20190;-69
2023/03/02 01:47:17;;;;;;;34.88;21.00;;;3.00;86.90;;;;;;5031870;28;20318;-69
2023/03/02 01:50:02;;;;;;;38.40;22.52;;;3.10;86.80;;;;;;5070714;28;20182;-69
2023/03/02 01:52:36;;;;;;;40.47;22.75;;;3.10;87.00;;;;;;5075596;28;20343;-69
2023/03/02 01:55:08;;;;;;;37.78;24.15;;;3.10;86.60;;;;;;5055507;28;20548;-68
2023/03/02 01:57:43;;;;;;;36.28;23.45;;;3.10;86.60;;;;;;5067022;28;20263;-69
2023/03/02 02:00:14;;;;;;;42.70;23.08;;;3.00;86.90;;;;;;5075440;28;20280;-69
2023/03/02 02:02:43;;;;;;;44.20;25.20;;;3.00;87.60;;;;;;5062749;28;20226;-69
2023/03/02 02:05:13;;;;;;;37.63;23.15;;;3.00;87.90;;;;;;5070412;28;20191;-69
2023/03/02 02:07:43;;;;;;;37.80;23.45;;;3.00;87.80;;;;;;5063409;28;20206;-70
2023/03/02 02:10:16;;;;;;;43.65;26.55;;;3.00;87.90;;;;;;5071604;28;20182;-69
2023/03/02 02:12:43;;;;;;;35.92;24.65;;;3.00;87.90;;;;;;5071767;28;20698;-69
2023/03/02 02:15:12;;;;;;;36.35;23.42;;;3.00;87.90;;;;;;5075364;28;20201;-69
2023/03/02 02:17:44;;;;;;;38.33;23.80;;;3.00;88.80;;;;;;5064446;28;20270;-69
2023/03/02 02:20:23;;;;;;;38.65;24.08;;;3.00;88.40;;;;;;5055155;28;20637;-69
2023/03/02 02:23:08;;;;;;;35.08;23.88;;;3.00;88.50;;;;;;5074744;28;20659;-69
2023/03/02 02:25:47;;;;;;;36.55;22.50;;;3.10;88.60;;;;;;5070933;28;20189;-69
2023/03/02 02:28:21;;;;;;;39.63;25.35;;;3.10;88.60;;;;;;5055256;28;20225;-68
2023/03/02 02:30:51;;;;;;;43.05;26.05;;;3.00;88.60;;;;;;5055752;28;20186;-69
2023/03/02 02:33:24;;;;;;;39.85;25.23;;;3.10;88.90;;;;;;5055096;28;20260;-69
2023/03/02 02:35:57;;;;;;;39.95;24.52;;;3.10;89.20;;;;;;5066719;28;20190;-69
2023/03/02 02:38:25;;;;;;;39.75;22.88;;;3.10;89.20;;;;;;5054574;28;20273;-68
2023/03/02 02:40:56;;;;;;;42.72;24.92;;;3.10;89.30;;;;;;5069345;28;20235;-68
2023/03/02 02:43:26;;;;;;;36.33;23.88;;;3.10;89.30;;;;;;5074822;28;20575;-69
2023/03/02 02:46:05;;;;;;;47.30;23.50;;;3.10;89.30;;;;;;5060268;28;20183;-69
2023/03/02 02:48:33;;;;;;;46.83;24.98;;;3.20;89.50;;;;;;5055441;28;20315;-67
2023/03/02 02:51:05;;;;;;;45.72;25.65;;;3.20;89.50;;;;;;5054839;28;20195;-69
2023/03/02 02:53:42;;;;;;;39.60;23.45;;;3.10;89.50;;;;;;5061610;28;20186;-68
2023/03/02 02:56:15;;;;;;;43.78;24.70;;;3.10;89.80;;;;;;5074826;28;20632;-69
2023/03/02 02:58:47;;;;;;;40.22;23.67;;;3.10;89.80;;;;;;5074352;28;20543;-69
2023/03/02 03:01:17;;;;;;;47.20;26.27;;;3.10;90.00;;;;;;5073340;28;20588;-69
2023/03/02 03:03:51;;;;;;;45.35;26.20;;;3.20;90.20;;;;;;5054682;28;20213;-69
2023/03/02 03:06:27;;;;;;;41.95;24.33;;;3.10;90.40;;;;;;5058876;28;20626;-69
2023/03/02 03:09:00;;;;;;;42.53;24.73;;;3.20;90.60;;;;;;5069803;28;20217;-68
2023/03/02 03:11:30;;;;;;;47.42;24.02;;;3.20;90.60;;;;;;5054092;28;20194;-69
2023/03/02 03:14:08;;;;;;;41.38;22.92;;;3.20;90.60;;;;;;5058167;28;20693;-69
2023/03/02 03:16:38;;;;;;;46.53;24.30;;;3.20;90.60;;;;;;5074279;28;20194;-69
2023/03/02 03:19:15;;;;;;;40.55;24.25;;;3.20;90.70;;;;;;5069026;28;20701;-69
2023/03/02 03:21:43;;;;;;;35.35;21.52;;;3.20;90.70;;;;;;5063277;28;20231;-69
2023/03/02 03:24:10;;;;;;;41.90;24.20;;;3.20;90.70;;;;;;5068705;28;20179;-69
2023/03/02 03:26:38;;;;;;;37.13;23.75;;;3.20;90.40;;;;;;5053862;28;20257;-69
2023/03/02 03:29:07;;;;;;;43.55;25.83;;;3.20;90.30;;;;;;5056824;28;20222;-69
2023/03/02 03:31:40;;;;;;;35.85;22.58;;;3.20;90.10;;;;;;5073883;28;20229;-69
2023/03/02 03:34:08;;;;;;;36.30;22.85;;;3.20;90.00;;;;;;5058292;28;20186;-68
2023/03/02 03:36:38;;;;;;;41.08;24.48;;;3.20;89.70;;;;;;5053804;28;20229;-68
2023/03/02 03:39:06;;;;;;;40.92;22.70;;;3.20;89.90;;;;;;5067391;28;20645;-69
2023/03/02 03:41:35;;;;;;;39.00;22.02;;;3.20;89.90;;;;;;5073493;28;20194;-69
2023/03/02 03:44:09;;;;;;;38.38;21.70;;;3.20;90.00;;;;;;5063342;28;20182;-69
2023/03/02 03:46:40;;;;;;;41.22;22.88;;;3.20;90.10;;;;;;5053542;28;20203;-69
2023/03/02 03:49:12;;;;;;;40.60;21.83;;;3.20;90.40;;;;;;5053561;28;20260;-68
2023/03/02 03:51:39;;;;;;;36.75;20.52;;;3.20;90.90;;;;;;5053217;28;20672;-69
2023/03/02 03:54:10;;;;;;;35.80;20.65;;;3.20;90.60;;;;;;5054238;28;20213;-68
2023/03/02 03:56:42;;;;;;;34.78;20.25;;;3.20;90.50;;;;;;5073318;28;20276;-69
2023/03/02 03:59:12;;;;;;;33.83;20.75;;;3.20;90.60;;;;;;5071360;28;20206;-69
2023/03/02 04:01:42;;;;;;;42.17;20.85;;;3.20;90.70;;;;;;5052918;28;20249;-69
2023/03/02 04:04:12;;;;;;;34.97;20.77;;;3.20;90.60;;;;;;5053250;28;20237;-69
2023/03/02 04:06:39;;;;;;;35.60;19.98;;;3.20;90.50;;;;;;5066293;28;20190;-69
2023/03/02 04:09:07;;;;;;;34.63;19.48;;;3.20;90.50;;;;;;5052378;28;20221;-70
2023/03/02 04:11:37;;;;;;;37.20;22.80;;;3.20;90.30;;;;;;5072773;28;20217;-69
2023/03/02 04:14:06;;;;;;;39.50;21.30;;;3.20;90.20;;;;;;5072678;28;20240;-69
2023/03/02 04:16:36;;;;;;;34.25;19.25;;;3.20;90.30;;;;;;5071757;28;20205;-69
2023/03/02 04:19:09;;;;;;;35.35;19.30;;;3.20;90.40;;;;;;5062742;28;20277;-69
2023/03/02 04:21:38;;;;;;;37.47;20.58;;;3.20;90.40;;;;;;5052771;28;20194;-68
2023/03/02 04:24:06;;;;;;;38.47;21.27;;;3.20;90.50;;;;;;5061007;28;20277;-72
2023/03/02 04:26:42;;;;;;;37.97;21.50;;;3.20;90.70;;;;;;5072334;28;20194;-68
2023/03/02 04:29:10;;;;;;;38.80;20.08;;;3.20;90.50;;;;;;5070309;28;20713;-69
2023/03/02 04:31:40;;;;;;;34.72;20.23;;;3.20;90.60;;;;;;5072298;28;20198;-70
2023/03/02 04:34:10;;;;;;;43.45;22.60;;;3.10;90.60;;;;;;5032650;28;20191;-69
2023/03/02 04:36:39;;;;;;;37.88;18.88;;;3.10;90.70;;;;;;5032539;28;20273;-69
2023/03/02 04:39:10;;;;;;;36.60;19.67;;;3.10;90.60;;;;;;5044323;28;20190;-69
2023/03/02 04:41:38;;;;;;;40.47;20.05;;;3.10;90.60;;;;;;5072531;28;20583;-68
2023/03/02 04:44:06;;;;;;;33.78;20.27;;;3.10;90.70;;;;;;5052509;28;20199;-68
2023/03/02 04:46:34;;;;;;;39.47;20.98;;;3.10;90.90;;;;;;5052101;28;20190;-69
2023/03/02 04:49:03;;;;;;;33.42;19.77;;;3.10;90.80;;;;;;5070531;28;20217;-69
2023/03/02 04:51:39;;;;;;;35.53;21.10;;;3.10;90.80;;;;;;5064866;28;20190;-69
2023/03/02 04:54:09;;;;;;;42.22;20.15;;;3.00;90.90;;;;;;5051942;28;20190;-69
2023/03/02 04:56:37;;;;;;;41.38;21.63;;;3.00;90.90;;;;;;5057961;28;20185;-69
2023/03/02 04:59:04;;;;;;;36.13;20.40;;;3.00;91.00;;;;;;5071518;28;20185;-68
2023/03/02 05:01:31;;;;;;;38.17;22.25;;;3.00;91.00;;;;;;5066092;28;20218;-68
2023/03/02 05:03:59;;;;;;;38.47;20.45;;;3.00;91.10;;;;;;5061501;28;20620;-68
2023/03/02 05:06:28;;;;;;;37.38;20.48;;;3.00;91.10;;;;;;5067426;28;20645;-68
2023/03/02 05:08:58;;;;;;;32.95;18.17;;;3.00;91.30;;;;;;5052152;28;20222;-68
2023/03/02 05:11:26;;;;;;;36.67;19.92;;;3.00;91.60;;;;;;5055219;28;20235;-67
2023/03/02 05:13:56;;;;;;;38.80;19.50;;;3.00;91.30;;;;;;5072016;28;20194;-69
2023/03/02 05:16:25;;;;;;;36.92;18.75;;;3.00;91.30;;;;;;5061639;28;20190;-69
2023/03/02 05:18:52;;;;;;;38.47;20.35;;;3.00;91.30;;;;;;5051991;28;20197;-69
2023/03/02 05:21:20;;;;;;;38.58;19.35;;;2.90;91.40;;;;;;5060615;28;20201;-68
2023/03/02 05:23:49;;;;;;;35.25;20.00;;;2.90;91.40;;;;;;5076706;28;20559;-69
2023/03/02 05:26:17;;;;;;;34.72;19.65;;;2.90;91.40;;;;;;5070155;28;20217;-69
2023/03/02 05:28:46;;;;;;;33.35;18.52;;;2.90;91.00;;;;;;5058435;28;20303;-69
2023/03/02 05:31:17;;;;;;;30.58;16.85;;;2.90;91.10;;;;;;5065458;28;20192;-69
2023/03/02 05:33:45;;;;;;;36.70;17.80;;;2.90;91.30;;;;;;5078787;28;20201;-69
2023/03/02 05:36:12;;;;;;;33.03;17.27;;;2.80;91.70;;;;;;5070916;28;20182;-68
2023/03/02 05:38:40;;;;;;;40.47;19.25;;;2.80;91.40;;;;;;5058333;28;20251;-69
2023/03/02 05:41:08;;;;;;;31.27;17.85;;;2.80;91.30;;;;;;5063642;28;20243;-69
2023/03/02 05:43:36;;;;;;;35.67;19.17;;;2.80;91.30;;;;;;5078070;28;20193;-69
2023/03/02 05:46:03;;;;;;;27.77;16.45;;;2.80;91.40;;;;;;5068757;28;20649;-69
2023/03/02 05:48:31;;;;;;;33.58;19.52;;;2.80;91.40;;;;;;5069298;28;20274;-69
2023/03/02 05:50:59;;;;;;;37.15;19.85;;;2.80;91.40;;;;;;5069574;28;20190;-68
2023/03/02 05:53:27;;;;;;;33.35;17.85;;;2.80;91.40;;;;;;5066189;28;20197;-68
2023/03/02 05:55:55;;;;;;;31.60;18.88;;;2.80;91.40;;;;;;5058691;28;20194;-69
2023/03/02 05:58:23;;;;;;;34.83;19.85;;;2.80;91.30;;;;;;5062553;28;20186;-70
2023/03/02 06:00:51;;;;;;;33.85;18.23;;;2.80;91.30;;;;;;5076431;28;20196;-69
2023/03/02 06:03:18;;;;;;;36.70;21.13;;;2.80;91.40;;;;;;5076815;28;20592;-68
2023/03/02 06:05:51;;;;;;;42.47;21.88;;;2.80;91.30;;;;;;5078564;28;20200;-69
2023/03/02 06:08:20;;;;;;;41.45;20.73;;;2.90;91.20;;;;;;5074240;28;20222;-69
2023/03/02 06:10:49;;;;;;;37.05;20.77;;;2.90;91.20;;;;;;5059082;28;20190;-69
2023/03/02 06:13:18;;;;;;;42.00;19.60;;;2.90;91.30;;;;;;5060310;28;20198;-69
2023/03/02 06:15:47;;;;;;;32.03;18.92;;;2.90;91.20;;;;;;5053544;28;20240;-69
2023/03/02 06:18:15;;;;;;;41.55;19.90;;;2.90;91.30;;;;;;5055662;28;20186;-68
2023/03/02 06:20:42;;;;;;;38.28;17.23;;;2.80;91.30;;;;;;5056016;28;20186;-70
2023/03/02 06:23:10;;;;;;;33.55;20.40;;;2.80;91.40;;;;;;5054613;28;20695;-72
2023/03/02 06:25:42;;;;;;;35.70;20.85;;;2.80;91.40;;;;;;5047758;28;20214;-68
2023/03/02 06:28:10;;;;;;;36.75;20.27;;;2.80;91.50;;;;;;5052256;28;20238;-70
2023/03/02 06:30:37;;;;;;;38.78;21.52;;;2.80;91.40;;;;;;5054006;28;20209;-69
2023/03/02 06:33:06;;;;;;;36.80;20.50;;;2.90;91.50;;;;;;5056373;28;20187;-69
2023/03/02 06:35:33;;;;;;;42.40;20.65;;;2.90;91.30;;;;;;5052369;28;20244;-69
2023/03/02 06:38:01;;;;;;;41.25;19.00;;;2.90;91.10;;;;;;5053587;28;20194;-69
2023/03/02 06:40:30;;;;;;;43.08;20.52;;;2.90;91.30;;;;;;5053515;28;20669;-69
2023/03/02 06:43:00;;;;;;;33.88;18.20;;;3.00;91.50;;;;;;5052856;28;20228;-70
2023/03/02 06:45:28;;;;;;;37.70;20.63;;;3.00;91.30;;;;;;5049288;28;20209;-69
2023/03/02 06:48:00;;;;;;;36.20;20.20;;;3.10;91.30;;;;;;5053126;28;20217;-69
2023/03/02 06:50:31;;;;;;;40.72;21.95;;;3.10;90.90;;;;;;5052900;28;20201;-71
2023/03/02 06:52:58;;;;;;;44.42;21.48;;;3.10;91.40;;;;;;5049748;28;20206;-69
2023/03/02 06:55:26;;;;;;;39.88;21.40;;;3.20;91.40;;;;;;5052927;28;20273;-69
2023/03/02 06:57:54;;;;;;;36.97;23.02;;;3.20;91.10;;;;;;5053231;28;20553;-69
2023/03/02 07:00:26;;;;;;;38.72;20.42;;;3.20;91.10;;;;;;5053305;28;20193;-69
2023/03/02 07:02:55;;;;;;;33.30;18.35;;;3.20;90.90;;;;;;5053229;28;20596;-69
2023/03/02 07:05:23;;;;;;;38.75;21.30;;;3.20;90.80;;;;;;5052606;28;20212;-70
2023/03/02 07:07:52;;;;;;;41.33;20.48;;;3.20;90.70;;;;;;5052254;28;20205;-69
2023/03/02 07:10:20;;;;;;;43.20;21.33;;;3.20;90.50;;;;;;5061827;28;20222;-69
2023/03/02 07:12:47;;;;;;;49.13;23.05;;;3.30;90.50;;;;;;5052574;28;20244;-68
2023/03/02 07:15:14;;;;;;;40.35;21.05;;;3.30;90.50;;;;;;5051560;28;20187;-70
2023/03/02 07:17:44;;;;;;;41.95;22.98;;;3.40;90.50;;;;;;5054467;28;20186;-69
2023/03/02 07:20:16;;;;;;;42.97;21.75;;;3.40;90.60;;;;;;5052090;28;20202;-69
2023/03/02 07:22:44;;;;;;;45.50;23.95;;;3.50;90.50;;;;;;5053747;28;20244;-70
2023/03/02 07:25:13;;;;;;;39.15;20.80;;;3.50;90.60;;;;;;5053539;28;20210;-69
2023/03/02 07:27:41;;;;;;;45.10;22.77;;;3.60;90.60;;;;;;5052486;28;20289;-69
2023/03/02 07:30:09;;;;;;;44.38;21.83;;;3.60;90.50;;;;;;5052062;28;20217;-69
2023/03/02 07:32:36;;;;;;;43.35;23.00;;;3.60;90.10;;;;;;5052377;28;20230;-69
2023/03/02 07:35:03;;;;;;;44.45;23.58;;;3.70;90.20;;;;;;5052568;28;20277;-69
2023/03/02 07:37:31;;;;;;;43.65;22.58;;;3.70;90.20;;;;;;5052197;28;20198;-69
2023/03/02 07:39:58;;;;;;;50.50;24.30;;;3.70;90.10;;;;;;5052269;28;20273;-70
2023/03/02 07:42:26;;;;;;;49.90;23.10;;;3.80;90.10;;;;;;5052731;28;20198;-69
2023/03/02 07:44:54;;;;;;;49.20;22.63;;;3.80;89.60;;;;;;5051514;28;20198;-69
2023/03/02 07:47:21;;;;;;;44.75;24.48;;;3.90;89.30;;;;;;5052090;28;20205;-70
2023/03/02 07:49:48;;;;;;;42.58;22.83;;;3.90;89.20;;;;;;5051581;28;20210;-71
2023/03/02 07:52:15;;;;;;;41.13;22.63;;;3.90;88.60;;;;;;5053859;28;20221;-68
2023/03/02 07:54:42;;;;;;;44.80;23.15;;;4.00;88.10;;;;;;5052440;28;20632;-68
2023/03/02 07:57:09;;;;;;;50.00;24.42;;;4.00;87.50;;;;;;5051982;28;20236;-68
2023/03/02 07:59:38;;;;;;;51.20;23.83;;;4.00;86.90;;;;;;5052489;28;20214;-70
2023/03/02 08:02:05;;;;;;;42.33;21.92;;;4.00;86.80;;;;;;5049435;28;20218;-69
2023/03/02 08:04:35;;;;;;;42.17;21.70;;;4.10;86.70;;;;;;5053010;28;20282;-69
2023/03/02 08:07:02;;;;;;;42.88;23.70;;;4.10;86.60;;;;;;5056559;28;20704;-69
2023/03/02 08:09:29;;;;;;;45.90;23.63;;;4.20;86.50;;;;;;5047097;28;20279;-69
2023/03/02 08:11:57;;;;;;;44.70;21.50;;;4.20;86.20;;;;;;5053816;28;20192;-69
2023/03/02 08:14:23;;;;;;;34.42;19.25;;;4.20;86.00;;;;;;5051043;28;20190;-70
2023/03/02 08:16:52;;;;;;;37.20;20.77;;;4.20;85.20;;;;;;5051368;28;20361;-70
2023/03/02 08:19:19;;;;;;;39.22;23.23;;;4.30;84.70;;;;;;5047418;28;20273;-69
2023/03/02 08:21:46;;;;;;;39.88;19.65;;;4.30;84.50;;;;;;5052860;28;20229;-69
2023/03/02 08:24:13;;;;;;;41.28;21.20;;;4.40;84.00;;;;;;5053308;28;20214;-68
2023/03/02 08:26:41;;;;;;;39.72;20.58;;;4.40;84.20;;;;;;5050613;28;20198;-69
2023/03/02 08:29:08;;;;;;;40.05;19.70;;;4.50;84.50;;;;;;5051333;28;20210;-68
2023/03/02 08:31:35;;;;;;;34.60;18.63;;;4.50;84.20;;;;;;5052214;28;20226;-69
2023/03/02 08:34:03;;;;;;;36.72;19.70;;;4.60;84.20;;;;;;5051249;28;20202;-69
2023/03/02 08:36:30;;;;;;;35.65;19.77;;;4.70;83.80;;;;;;5050698;28;20252;-69
2023/03/02 08:38:57;;;;;;;38.78;20.75;;;4.70;83.50;;;;;;5054222;28;20240;-69
2023/03/02 08:41:25;;;;;;;41.30;22.15;;;4.70;82.80;;;;;;5052507;28;20186;-69
2023/03/02 08:43:53;;;;;;;35.38;20.40;;;4.70;82.60;;;;;;5050728;28;20320;-69
2023/03/02 08:46:20;;;;;;;34.30;19.25;;;4.80;82.50;;;;;;5050408;28;20229;-69
2023/03/02 08:48:50;;;;;;;34.65;18.38;;;4.90;82.00;;;;;;5050684;28;20206;-69
2023/03/02 08:51:20;;;;;;;38.70;20.98;;;4.90;81.60;;;;;;5050583;28;20194;-69
2023/03/02 08:53:49;;;;;;;40.95;19.08;;;5.00;81.40;;;;;;5052317;28;20190;-69
2023/03/02 08:56:18;;;;;;;33.92;18.40;;;5.00;81.00;;;;;;5053249;28;20186;-70
2023/03/02 08:58:46;;;;;;;38.97;19.80;;;5.10;80.90;;;;;;5049664;28;20687;-69
2023/03/02 09:01:18;;;;;;;32.42;19.73;;;5.10;80.40;;;;;;5049586;28;20715;-69
2023/03/02 09:03:45;;;;;;;47.40;24.23;;;5.10;80.40;;;;;;5047432;28;20197;-70
2023/03/02 09:06:13;;;;;;;37.53;20.27;;;5.10;80.30;;;;;;5050216;28;20190;-69
2023/03/02 09:08:42;;;;;;;34.22;20.75;;;5.20;80.40;;;;;;5050963;28;20603;-69
2023/03/02 09:11:09;;;;;;;37.80;20.73;;;5.20;80.60;;;;;;5054740;28;20185;-69
2023/03/02 09:13:37;;;;;;;40.65;21.13;;;5.30;80.30;;;;;;5050425;28;20602;-69
2023/03/02 09:16:04;;;;;;;39.78;20.13;;;5.40;79.60;;;;;;5050232;28;20186;-69
2023/03/02 09:18:32;;;;;;;35.97;21.50;;;5.40;79.10;;;;;;5050226;28;20198;-69
2023/03/02 09:21:00;;;;;;;45.70;20.73;;;5.40;79.20;;;;;;5050791;28;20237;-70
2023/03/02 09:23:27;;;;;;;37.80;21.48;;;5.50;79.00;;;;;;5049806;28;20198;-69
2023/03/02 09:25:56;;;;;;;41.95;23.58;;;5.50;78.10;;;;;;5050328;28;20740;-69
2023/03/02 09:28:23;;;;;;;37.53;22.90;;;5.50;77.90;;;;;;5052602;28;20217;-69
2023/03/02 09:30:52;;;;;;;42.08;22.70;;;5.60;77.60;;;;;;5050442;28;20218;-70
2023/03/02 09:33:19;;;;;;;39.67;21.65;;;5.60;77.70;;;;;;5049303;28;20673;-69
2023/03/02 09:35:47;;;;;;;47.50;23.08;;;5.60;78.00;;;;;;5051175;28;20463;-69
2023/03/02 09:38:16;;;;;;;41.72;22.70;;;5.60;77.90;;;;;;5047058;28;20187;-69
2023/03/02 09:41:03;;;;;;;36.45;21.42;;;5.60;78.10;;;;;;5052461;28;20585;-69
2023/03/02 09:43:41;;;;;;;37.78;21.42;;;5.70;78.10;;;;;;5046682;28;20202;-69
2023/03/02 09:46:23;;;;;;;44.47;23.95;;;5.80;78.00;;;;;;5053030;28;20616;-70
2023/03/02 09:49:07;;;;;;;45.38;23.85;;;5.80;77.30;;;;;;5048075;28;20540;-69
2023/03/02 09:51:39;;;;;;;49.88;25.73;;;5.80;77.20;;;;;;5046645;28;20198;-69
2023/03/02 09:54:10;;;;;;;43.50;25.15;;;5.90;77.30;;;;;;5050153;28;20194;-69
2023/03/02 09:56:44;;;;;;;45.80;24.98;;;5.90;77.20;;;;;;5048687;28;20240;-69
2023/03/02 09:59:22;;;;;;;44.78;22.75;;;5.90;76.90;;;;;;5043143;28;20189;-69
2023/03/02 10:02:21;;;;;;;41.08;24.55;;;6.00;77.10;;;;;;5044270;28;20253;-70
2023/03/02 10:04:53;;;;;;;43.53;21.50;;;6.00;77.20;;;;;;5049303;28;20241;-69
2023/03/02 10:07:26;;;;;;;42.78;23.85;;;6.10;77.10;;;;;;5051898;28;20649;-69
2023/03/02 10:09:53;;;;;;;42.47;22.33;;;6.20;76.80;;;;;;5059118;28;20305;-69
2023/03/02 10:12:46;;;;;;;48.95;24.92;;;6.20;76.30;;;;;;5054284;28;20189;-69
2023/03/02 10:15:17;;;;;;;40.42;24.25;;;6.20;76.00;;;;;;5054372;28;20273;-69
2023/03/02 10:17:56;;;;;;;46.53;27.45;;;6.20;75.40;;;;;;5054301;28;20278;-69
2023/03/02 10:20:30;;;;;;;49.45;26.20;;;6.20;75.30;;;;;;5054302;28;20285;-69
2023/03/02 10:23:05;;;;;;;42.75;22.90;;;6.20;75.80;;;;;;5054172;28;20197;-69
2023/03/02 10:25:38;;;;;;;42.65;25.60;;;6.10;75.60;;;;;;5050717;28;20281;-69
2023/03/02 10:28:15;;;;;;;45.47;24.75;;;6.10;75.40;;;;;;5054193;28;20284;-69
2023/03/02 10:30:43;;;;;;;39.58;23.98;;;6.10;75.80;;;;;;5049765;28;20233;-69
2023/03/02 10:33:13;;;;;;;39.80;22.60;;;6.10;76.10;;;;;;5053957;28;20281;-69
2023/03/02 10:35:45;;;;;;;37.20;22.38;;;6.20;75.70;;;;;;5053440;28;20273;-70
2023/03/02 10:38:14;;;;;;;41.00;21.33;;;6.20;75.50;;;;;;5050175;28;20273;-69
2023/03/02 10:40:43;;;;;;;41.45;21.92;;;6.30;75.50;;;;;;5053922;28;20297;-69
2023/03/02 10:43:17;;;;;;;37.10;20.70;;;6.30;75.00;;;;;;5053812;28;20194;-70
2023/03/02 10:45:45;;;;;;;34.63;18.02;;;6.30;74.30;;;;;;5050228;28;20198;-69
2023/03/02 10:48:14;;;;;;;37.28;19.27;;;6.40;74.10;;;;;;5053483;28;20285;-69
2023/03/02 10:50:44;;;;;;;33.25;20.65;;;6.40;73.20;;;;;;5053005;28;20765;-69
2023/03/02 10:53:17;;;;;;;32.53;18.75;;;6.50;72.60;;;;;;5053038;28;20190;-69
2023/03/02 10:55:46;;;;;;;30.30;18.63;;;6.50;72.40;;;;;;5051717;28;20220;-69
2023/03/02 10:58:24;;;;;;;37.15;18.85;;;6.50;70.90;;;;;;5053177;28;20191;-70
2023/03/02 11:01:00;;;;;;;32.30;18.48;;;6.50;70.40;;;;;;5053487;28;20328;-69
2023/03/02 11:03:28;;;;;;;30.30;18.65;;;6.40;71.20;;;;;;5052944;28;20331;-70
2023/03/02 11:05:55;;;;;;;35.25;21.05;;;6.50;70.70;;;;;;5053392;28;20248;-70
2023/03/02 11:08:24;;;;;;;39.10;20.67;;;6.50;71.20;;;;;;5052849;28;20285;-69
2023/03/02 11:10:53;;;;;;;40.30;20.67;;;6.50;71.90;;;;;;5052455;28;20256;-69
2023/03/02 11:13:27;;;;;;;44.58;25.30;;;6.50;72.10;;;;;;5053318;28;20189;-69
2023/03/02 11:15:58;;;;;;;36.28;21.65;;;6.50;72.20;;;;;;5053475;28;20197;-69
2023/03/02 11:18:28;;;;;;;43.70;23.13;;;6.50;72.80;;;;;;5051837;28;20186;-69
2023/03/02 11:21:01;;;;;;;52.00;25.85;;;6.50;73.30;;;;;;5042744;28;20190;-69
2023/03/02 11:23:37;;;;;;;39.67;21.55;;;6.50;73.40;;;;;;5054187;28;20187;-69
2023/03/02 11:26:13;;;;;;;41.55;22.05;;;6.50;73.40;;;;;;5048115;28;20277;-69
2023/03/02 11:28:51;;;;;;;41.95;21.13;;;6.50;73.50;;;;;;5051499;28;20581;-69
2023/03/02 11:31:28;;;;;;;37.03;21.38;;;6.60;73.30;;;;;;5052684;28;20214;-69
2023/03/02 11:34:07;;;;;;;38.20;22.55;;;6.60;73.00;;;;;;5052355;28;20540;-70
2023/03/02 11:36:44;;;;;;;36.15;21.45;;;6.60;72.60;;;;;;5054124;28;20285;-69
2023/03/02 11:39:17;;;;;;;38.53;21.13;;;6.50;72.20;;;;;;5052387;28;20187;-69
2023/03/02 11:41:44;;;;;;;38.95;21.42;;;6.60;73.10;;;;;;5052803;28;20198;-69
2023/03/02 11:44:17;;;;;;;38.30;20.50;;;6.60;73.20;;;;;;5048136;28;20265;-70
2023/03/02 11:46:48;;;;;;;40.55;22.70;;;6.60;73.20;;;;;;5048603;28;20199;-69
2023/03/02 11:49:20;;;;;;;44.42;23.75;;;6.60;73.30;;;;;;5050317;28;20277;-69
2023/03/02 11:51:55;;;;;;;45.58;23.38;;;6.50;72.80;;;;;;5048997;28;20757;-70
2023/03/02 11:54:36;;;;;;;36.65;21.92;;;6.50;72.30;;;;;;5048575;28;20182;-70
2023/03/02 11:57:03;;;;;;;40.78;24.48;;;6.40;72.60;;;;;;5050922;28;20209;-69
2023/03/02 11:59:33;;;;;;;39.95;20.73;;;6.40;72.20;;;;;;5051510;28;20187;-69
2023/03/02 12:02:01;;;;;;;35.92;19.98;;;6.40;73.10;;;;;;5049555;28;20264;-69
2023/03/02 12:04:32;;;;;;;41.60;24.38;;;6.40;73.00;;;;;;5051868;28;20637;-70
2023/03/02 12:07:01;;;;;;;40.75;22.38;;;6.40;72.10;;;;;;5048666;28;20194;-69
2023/03/02 12:09:37;;;;;;;42.38;22.77;;;6.30;72.20;;;;;;5051751;28;20282;-69
2023/03/02 12:12:40;;;;;;;38.92;21.00;;;6.20;72.20;;;;;;5051985;28;20193;-70
2023/03/02 12:15:29;;;;;;;41.67;20.95;;;6.20;72.40;;;;;;5051850;28;20285;-69
2023/03/02 12:17:56;;;;;;;40.92;21.90;;;6.10;72.40;;;;;;5048484;28;20283;-69
2023/03/02 12:20:26;;;;;;;35.28;21.17;;;6.10;72.60;;;;;;5051881;28;20237;-70
2023/03/02 12:22:54;;;;;;;36.53;20.20;;;6.10;73.30;;;;;;5051332;28;20233;-70
2023/03/02 12:25:40;;;;;;;42.92;22.10;;;6.10;73.40;;;;;;5047630;28;20285;-69
2023/03/02 12:28:26;;;;;;;35.63;22.63;;;6.10;73.80;;;;;;5051486;28;20222;-69
2023/03/02 12:31:06;;;;;;;35.25;19.27;;;6.10;72.70;;;;;;5051227;28;20218;-70
2023/03/02 12:33:38;;;;;;;41.72;21.73;;;6.20;73.40;;;;;;5047107;28;20281;-69
2023/03/02 12:36:12;;;;;;;35.75;19.45;;;6.30;73.30;;;;;;5051355;28;20249;-69
2023/03/02 12:38:44;;;;;;;33.33;19.55;;;6.40;73.50;;;;;;5047836;28;20229;-69
2023/03/02 12:41:34;;;;;;;32.33;19.05;;;6.60;73.30;;;;;;5051637;28;20194;-69
2023/03/02 12:44:15;;;;;;;32.30;17.80;;;6.60;73.10;;;;;;5051316;28;20198;-69
2023/03/02 12:46:47;;;;;;;33.65;21.23;;;6.70;73.40;;;;;;5049848;28;20205;-69
2023/03/02 12:49:32;;;;;;;42.05;22.75;;;6.80;72.60;;;;;;5051460;28;20611;-69
2023/03/02 12:52:00;;;;;;;37.67;21.08;;;6.90;72.20;;;;;;5051429;28;20276;-70
2023/03/02 12:54:29;;;;;;;40.95;22.75;;;7.00;72.00;;;;;;5051420;28;20275;-69